Time;durP1;ratioP1;P1;durP2;ratioP2;P2;SDS_P1;SDS_P2;PMS_P1;PMS_P2;Temp;Humidity;BMP_temperature;BMP_pressure;BME280_temperature;BME280_humidity;BME280_pressure;Samples;Min_cycle;Max_cycle;Signal;HPM_P1;HPM_P2
2023/10/26 00:00:42;;;;;;;16.77;15.07;;;9.50;99.90;;;;;;5054776;28;40009;-79
2023/10/26 00:03:09;;;;;;;17.47;15.70;;;9.50;99.90;;;;;;5057028;28;35925;-78
2023/10/26 00:05:35;;;;;;;18.67;16.73;;;9.40;99.90;;;;;;5057456;28;38642;-79
2023/10/26 00:08:01;;;;;;;21.50;17.03;;;9.30;99.90;;;;;;5057312;28;38787;-78
2023/10/26 00:10:27;;;;;;;18.43;16.43;;;9.30;99.90;;;;;;5055927;28;47123;-78
2023/10/26 00:13:02;;;;;;;19.37;16.83;;;9.40;99.90;;;;;;5053770;28;37688;-77
2023/10/26 00:15:37;;;;;;;18.00;16.07;;;9.30;99.90;;;;;;5056208;28;49401;-77
2023/10/26 00:18:04;;;;;;;20.27;17.07;;;9.30;99.90;;;;;;5057810;28;37527;-77
2023/10/26 00:20:30;;;;;;;25.63;20.23;;;9.30;99.90;;;;;;5052113;28;38195;-78
2023/10/26 00:22:56;;;;;;;20.53;17.30;;;9.20;99.90;;;;;;5057500;28;38385;-77
2023/10/26 00:25:22;;;;;;;22.90;17.97;;;9.20;99.90;;;;;;5051988;28;38953;-78
2023/10/26 00:27:51;;;;;;;27.27;19.53;;;9.20;99.90;;;;;;5053821;28;37630;-78
2023/10/26 00:30:18;;;;;;;19.47;16.53;;;9.20;99.90;;;;;;5056083;28;36864;-78
2023/10/26 00:32:44;;;;;;;21.97;18.33;;;9.10;99.90;;;;;;5044186;28;36841;-78
2023/10/26 00:35:10;;;;;;;18.67;15.67;;;9.10;99.90;;;;;;5047118;28;37616;-80
2023/10/26 00:37:36;;;;;;;20.20;17.43;;;9.10;99.90;;;;;;5052904;28;37721;-77
2023/10/26 00:40:03;;;;;;;21.33;16.70;;;9.20;99.90;;;;;;5053672;28;37675;-78
2023/10/26 00:42:30;;;;;;;20.70;16.90;;;9.10;99.90;;;;;;5051535;28;37269;-78
2023/10/26 00:44:56;;;;;;;17.33;15.63;;;9.10;99.90;;;;;;5054758;28;39042;-78
2023/10/26 00:47:24;;;;;;;19.70;17.53;;;9.00;99.90;;;;;;5049580;28;38387;-78
2023/10/26 00:49:50;;;;;;;23.77;18.23;;;9.00;99.90;;;;;;5054961;28;36638;-80
2023/10/26 00:52:17;;;;;;;19.37;16.63;;;9.00;99.90;;;;;;5048617;28;38051;-79
2023/10/26 00:54:43;;;;;;;19.43;16.63;;;9.00;99.90;;;;;;5045845;28;38594;-78
2023/10/26 00:57:10;;;;;;;17.87;15.97;;;8.90;99.90;;;;;;5048538;28;38792;-79
2023/10/26 00:59:38;;;;;;;20.07;16.47;;;8.90;99.90;;;;;;5055225;28;39776;-78
2023/10/26 01:02:07;;;;;;;19.17;16.93;;;8.90;99.90;;;;;;5504937;22;36456;-78
2023/10/26 01:04:34;;;;;;;19.03;16.30;;;8.80;99.90;;;;;;5036924;28;37095;-80
2023/10/26 01:07:00;;;;;;;27.20;18.40;;;8.80;99.90;;;;;;5040878;28;37811;-80
2023/10/26 01:09:26;;;;;;;22.43;16.53;;;8.80;99.90;;;;;;5047171;28;38445;-80
2023/10/26 01:11:53;;;;;;;17.93;15.93;;;8.80;99.90;;;;;;5046897;28;37685;-77
2023/10/26 01:14:20;;;;;;;18.23;15.67;;;8.80;99.90;;;;;;5049514;28;38319;-81
2023/10/26 01:16:46;;;;;;;18.97;16.90;;;8.70;99.90;;;;;;5051266;28;39196;-79
2023/10/26 01:19:12;;;;;;;19.70;16.30;;;8.70;99.90;;;;;;5046460;28;37920;-80
2023/10/26 01:21:58;;;;;;;18.23;15.77;;;8.70;99.90;;;;;;5045474;28;37738;-80
2023/10/26 01:24:24;;;;;;;23.23;15.97;;;8.60;99.90;;;;;;5045182;28;37719;-80
2023/10/26 01:26:50;;;;;;;22.17;16.10;;;8.60;99.90;;;;;;5046626;28;39564;-79
2023/10/26 01:29:19;;;;;;;19.33;15.50;;;8.50;99.90;;;;;;5043435;28;38778;-79
2023/10/26 01:31:45;;;;;;;20.13;15.60;;;8.50;99.90;;;;;;5043657;28;37611;-80
2023/10/26 01:34:11;;;;;;;20.03;16.93;;;8.50;99.90;;;;;;5038116;28;39765;-78
2023/10/26 01:36:37;;;;;;;20.17;16.37;;;8.60;99.90;;;;;;5046688;28;38326;-77
2023/10/26 01:39:04;;;;;;;20.73;15.23;;;8.60;99.90;;;;;;5043369;28;39524;-77
2023/10/26 01:41:31;;;;;;;17.57;15.10;;;8.60;99.90;;;;;;5044740;28;37655;-77
2023/10/26 01:43:57;;;;;;;20.23;16.03;;;8.50;99.90;;;;;;5042801;28;39981;-81
2023/10/26 01:46:24;;;;;;;19.10;15.87;;;8.60;99.90;;;;;;5040903;28;38005;-78
2023/10/26 01:48:50;;;;;;;19.40;16.33;;;8.60;99.90;;;;;;5039816;28;38523;-79
2023/10/26 01:51:16;;;;;;;26.17;18.03;;;8.60;99.90;;;;;;5044525;28;36485;-80
2023/10/26 01:53:42;;;;;;;22.00;17.80;;;8.60;99.90;;;;;;5044972;28;38991;-80
2023/10/26 01:56:08;;;;;;;26.13;17.57;;;8.50;99.90;;;;;;5041259;28;37748;-77
2023/10/26 01:58:35;;;;;;;19.57;16.90;;;8.50;99.90;;;;;;5042088;28;37202;-78
2023/10/26 02:01:01;;;;;;;18.67;16.00;;;8.50;99.90;;;;;;5045776;28;37568;-77
2023/10/26 02:03:27;;;;;;;18.10;15.07;;;8.50;99.90;;;;;;5046901;28;47278;-77
2023/10/26 02:05:53;;;;;;;18.47;16.03;;;8.50;99.90;;;;;;5042185;28;38649;-78
2023/10/26 02:08:19;;;;;;;21.23;17.10;;;8.50;99.90;;;;;;5042669;28;38356;-76
2023/10/26 02:10:45;;;;;;;20.60;17.27;;;8.50;99.90;;;;;;5045881;28;37268;-78
2023/10/26 02:13:12;;;;;;;21.13;16.33;;;8.50;99.90;;;;;;5043569;28;38188;-77
2023/10/26 02:15:38;;;;;;;18.80;15.67;;;8.50;99.90;;;;;;5042978;28;38445;-78
2023/10/26 02:18:04;;;;;;;20.40;15.30;;;8.60;99.90;;;;;;5042112;28;38371;-78
2023/10/26 02:20:30;;;;;;;16.77;15.00;;;8.50;99.90;;;;;;5041033;28;37639;-78
2023/10/26 02:22:56;;;;;;;20.90;15.87;;;8.50;99.90;;;;;;5038531;28;38653;-77
2023/10/26 02:25:22;;;;;;;19.07;15.43;;;8.50;99.90;;;;;;5037071;28;37623;-78
2023/10/26 02:27:48;;;;;;;17.90;14.83;;;8.50;99.90;;;;;;5040199;28;37609;-77
2023/10/26 02:30:15;;;;;;;17.50;15.53;;;8.50;99.90;;;;;;5040930;28;38092;-79
2023/10/26 02:32:41;;;;;;;18.77;14.70;;;8.50;99.90;;;;;;5038893;28;38491;-79
2023/10/26 02:35:07;;;;;;;17.97;15.47;;;8.50;99.90;;;;;;5040901;28;37546;-78
2023/10/26 02:37:38;;;;;;;21.93;15.37;;;8.50;99.90;;;;;;5038349;28;37393;-78
2023/10/26 02:40:11;;;;;;;20.10;15.83;;;8.50;99.90;;;;;;5043577;28;37280;-80
2023/10/26 02:42:38;;;;;;;18.43;15.40;;;8.50;99.90;;;;;;5045397;28;47181;-80
2023/10/26 02:45:07;;;;;;;18.37;16.07;;;8.50;99.90;;;;;;5043361;28;39334;-77
2023/10/26 02:47:33;;;;;;;19.60;15.30;;;8.50;99.90;;;;;;5037423;28;47559;-78
2023/10/26 02:50:00;;;;;;;21.33;16.60;;;8.50;99.90;;;;;;5043158;28;37559;-77
2023/10/26 02:52:26;;;;;;;17.43;14.73;;;8.50;99.90;;;;;;5038262;28;38782;-77
2023/10/26 02:54:52;;;;;;;17.80;15.03;;;8.50;99.90;;;;;;5036766;28;39046;-77
2023/10/26 02:57:18;;;;;;;18.57;15.07;;;8.50;99.90;;;;;;5035852;28;37223;-77
2023/10/26 02:59:44;;;;;;;17.13;14.37;;;8.50;99.90;;;;;;5047191;28;38365;-77
2023/10/26 03:02:10;;;;;;;18.93;15.80;;;8.50;99.90;;;;;;5041375;28;38318;-78
2023/10/26 03:04:38;;;;;;;19.63;16.83;;;8.50;99.90;;;;;;5041937;28;38881;-78
2023/10/26 03:07:04;;;;;;;19.83;15.83;;;8.60;99.90;;;;;;5038468;28;38657;-78
2023/10/26 03:09:30;;;;;;;18.73;15.83;;;8.60;99.90;;;;;;5035380;28;38052;-78
2023/10/26 03:11:56;;;;;;;20.53;16.90;;;8.60;99.90;;;;;;5041547;28;37608;-78
2023/10/26 03:14:22;;;;;;;23.00;16.43;;;8.60;99.90;;;;;;5041536;28;38899;-78
2023/10/26 03:16:48;;;;;;;22.03;17.60;;;8.60;99.90;;;;;;5041767;28;39496;-79
2023/10/26 03:19:15;;;;;;;22.50;17.73;;;8.60;99.90;;;;;;5040435;28;36998;-80
2023/10/26 03:21:41;;;;;;;24.43;17.63;;;8.50;99.90;;;;;;5038062;28;38794;-79
2023/10/26 03:24:07;;;;;;;24.40;17.70;;;8.60;99.90;;;;;;5037307;28;37806;-79
2023/10/26 03:26:33;;;;;;;22.07;17.43;;;8.60;99.90;;;;;;5040705;28;39320;-79
2023/10/26 03:28:59;;;;;;;19.63;17.10;;;8.60;99.90;;;;;;5040924;28;37106;-78
2023/10/26 03:31:25;;;;;;;27.67;18.27;;;8.50;99.90;;;;;;5029473;28;37423;-78
2023/10/26 03:33:51;;;;;;;20.67;16.93;;;8.50;99.90;;;;;;5040168;28;37809;-78
2023/10/26 03:36:19;;;;;;;22.77;16.80;;;8.50;99.90;;;;;;5039825;28;39844;-78
2023/10/26 03:38:46;;;;;;;20.90;16.83;;;8.50;99.90;;;;;;5040425;28;36357;-79
2023/10/26 03:41:13;;;;;;;20.30;16.73;;;8.50;99.90;;;;;;5039272;28;40105;-78
2023/10/26 03:43:40;;;;;;;20.50;16.97;;;8.50;99.90;;;;;;5039259;28;39088;-77
2023/10/26 03:46:06;;;;;;;22.37;17.83;;;8.60;99.90;;;;;;5036734;28;38888;-78
2023/10/26 03:48:34;;;;;;;22.00;17.63;;;8.50;99.90;;;;;;5036034;28;37399;-78
2023/10/26 03:51:00;;;;;;;19.63;15.50;;;8.50;99.90;;;;;;5038042;28;39042;-77
2023/10/26 03:53:27;;;;;;;21.13;17.67;;;8.50;99.90;;;;;;5027335;28;46490;-78
2023/10/26 03:55:54;;;;;;;23.33;17.40;;;8.40;99.90;;;;;;5033934;28;40479;-78
2023/10/26 03:58:20;;;;;;;27.50;19.20;;;8.40;99.90;;;;;;5033297;28;36468;-78
2023/10/26 04:00:47;;;;;;;29.90;18.90;;;8.40;99.90;;;;;;5035755;28;38752;-79
2023/10/26 04:03:14;;;;;;;21.40;16.63;;;8.40;99.90;;;;;;5037931;28;38639;-78
2023/10/26 04:05:40;;;;;;;18.10;15.17;;;8.40;99.90;;;;;;5039322;28;38759;-78
2023/10/26 04:08:07;;;;;;;17.17;15.30;;;8.40;99.90;;;;;;5041287;28;37219;-78
2023/10/26 04:10:34;;;;;;;17.50;14.90;;;8.30;99.90;;;;;;5042790;28;39909;-78
2023/10/26 04:13:00;;;;;;;20.53;16.30;;;8.30;99.90;;;;;;5032034;28;37881;-79
2023/10/26 04:15:27;;;;;;;22.33;17.80;;;8.30;99.90;;;;;;5036238;28;38373;-78
2023/10/26 04:17:53;;;;;;;22.87;16.67;;;8.40;99.90;;;;;;5035477;28;37564;-78
2023/10/26 04:20:22;;;;;;;18.30;15.60;;;8.30;99.90;;;;;;5042785;28;39557;-81
2023/10/26 04:22:48;;;;;;;17.33;14.67;;;8.40;99.90;;;;;;5042835;28;38471;-79
2023/10/26 04:25:15;;;;;;;20.70;15.03;;;8.30;99.90;;;;;;5038680;28;37115;-80
2023/10/26 04:27:41;;;;;;;15.73;13.77;;;8.30;99.90;;;;;;5042510;28;36970;-78
2023/10/26 04:30:07;;;;;;;16.17;13.83;;;8.30;99.90;;;;;;5033679;28;38750;-79
2023/10/26 04:32:33;;;;;;;15.33;13.73;;;8.30;99.90;;;;;;5044379;28;38761;-79
2023/10/26 04:34:59;;;;;;;26.43;14.60;;;8.40;99.90;;;;;;5041779;28;37585;-78
2023/10/26 04:37:26;;;;;;;15.87;14.23;;;8.50;99.90;;;;;;5047769;28;37274;-80
2023/10/26 04:39:52;;;;;;;16.67;14.97;;;8.50;99.90;;;;;;5036809;28;37783;-77
2023/10/26 04:42:18;;;;;;;16.93;14.93;;;8.50;99.90;;;;;;5042664;28;39234;-77
2023/10/26 04:44:45;;;;;;;33.70;15.90;;;8.50;99.90;;;;;;5044536;28;38818;-78
2023/10/26 04:47:11;;;;;;;56.60;16.73;;;8.50;99.90;;;;;;5048416;28;38131;-78
2023/10/26 04:49:38;;;;;;;25.07;17.03;;;8.60;99.90;;;;;;5043252;28;37583;-78
2023/10/26 04:52:04;;;;;;;15.47;13.87;;;8.70;99.90;;;;;;5042616;28;38878;-78
2023/10/26 04:54:30;;;;;;;17.70;13.20;;;8.70;99.90;;;;;;5045880;28;38692;-79
2023/10/26 04:56:56;;;;;;;16.17;14.47;;;8.70;99.90;;;;;;5045728;28;37007;-78
2023/10/26 04:59:22;;;;;;;59.43;15.13;;;8.70;99.90;;;;;;5043242;28;37229;-78
2023/10/26 05:01:48;;;;;;;18.03;14.43;;;8.80;99.90;;;;;;5038306;28;37970;-79
2023/10/26 05:04:14;;;;;;;25.67;13.70;;;8.80;99.90;;;;;;5033902;28;38894;-80
2023/10/26 05:06:41;;;;;;;35.30;14.67;;;8.80;99.90;;;;;;5039742;28;37507;-80
2023/10/26 05:09:07;;;;;;;17.27;15.47;;;8.90;99.90;;;;;;5043786;28;38067;-77
2023/10/26 05:11:33;;;;;;;47.10;18.90;;;8.90;99.90;;;;;;5045869;28;38798;-79
2023/10/26 05:14:00;;;;;;;20.40;16.40;;;9.00;99.90;;;;;;5034757;28;38606;-79
2023/10/26 05:16:26;;;;;;;26.47;19.93;;;9.00;99.90;;;;;;5038667;28;37224;-80
2023/10/26 05:18:52;;;;;;;50.27;19.87;;;9.00;99.90;;;;;;5042822;28;37396;-82
2023/10/26 05:21:19;;;;;;;24.70;20.90;;;9.00;99.90;;;;;;5036515;28;37622;-79
2023/10/26 05:23:47;;;;;;;23.10;20.27;;;9.10;99.90;;;;;;5042473;28;38225;-80
2023/10/26 05:26:13;;;;;;;47.20;22.27;;;9.10;99.90;;;;;;5046915;28;38545;-79
2023/10/26 05:28:39;;;;;;;30.83;23.20;;;9.10;99.90;;;;;;5041539;28;39354;-79
2023/10/26 05:31:05;;;;;;;33.10;22.10;;;9.10;99.90;;;;;;5046215;28;37668;-78
2023/10/26 05:33:31;;;;;;;33.63;23.90;;;9.00;99.90;;;;;;5042339;28;38701;-79
2023/10/26 05:35:57;;;;;;;50.33;26.50;;;9.10;99.90;;;;;;5041693;28;37274;-80
2023/10/26 05:38:23;;;;;;;43.40;25.90;;;9.10;99.90;;;;;;5042039;28;38685;-81
2023/10/26 05:40:55;;;;;;;36.80;26.67;;;9.10;99.90;;;;;;5043927;28;38355;-80
2023/10/26 05:43:22;;;;;;;33.30;25.17;;;9.10;99.90;;;;;;5037273;28;38612;-80
2023/10/26 05:45:48;;;;;;;43.47;28.13;;;9.00;99.90;;;;;;5036713;28;38259;-79
2023/10/26 05:48:16;;;;;;;58.40;28.23;;;9.00;99.90;;;;;;5026941;28;37822;-79
2023/10/26 05:50:42;;;;;;;218.20;43.13;;;9.00;99.90;;;;;;5032268;28;39121;-81
2023/10/26 05:53:10;;;;;;;98.80;34.57;;;9.10;99.90;;;;;;5020539;28;39927;-81
2023/10/26 05:55:39;;;;;;;32.30;25.33;;;9.10;99.90;;;;;;5026952;28;38447;-80
2023/10/26 05:58:05;;;;;;;32.87;25.47;;;9.00;99.90;;;;;;5028434;28;38581;-79
2023/10/26 06:00:34;;;;;;;64.70;29.20;;;8.90;99.90;;;;;;5029378;28;37753;-81
2023/10/26 06:03:00;;;;;;;183.63;37.90;;;8.90;99.90;;;;;;5031354;28;37190;-80
2023/10/26 06:05:27;;;;;;;49.30;28.23;;;8.90;99.90;;;;;;5033296;28;37296;-81
2023/10/26 06:07:53;;;;;;;30.37;24.77;;;8.90;99.90;;;;;;5032364;28;38719;-80
2023/10/26 06:10:20;;;;;;;51.57;26.87;;;8.80;99.90;;;;;;5030187;28;37511;-80
2023/10/26 06:12:46;;;;;;;61.00;26.87;;;8.80;99.90;;;;;;5027431;28;38125;-77
2023/10/26 06:15:12;;;;;;;45.07;24.33;;;8.80;99.90;;;;;;5032492;28;37303;-79
2023/10/26 06:17:38;;;;;;;30.47;24.80;;;8.70;99.90;;;;;;5029480;28;38346;-78
2023/10/26 06:20:04;;;;;;;52.93;25.10;;;8.70;99.90;;;;;;5025732;28;37719;-79
2023/10/26 06:22:30;;;;;;;141.57;28.33;;;8.70;99.90;;;;;;5033277;28;38209;-77
2023/10/26 06:24:57;;;;;;;116.97;29.67;;;8.70;99.90;;;;;;5033106;28;36048;-77
2023/10/26 06:27:23;;;;;;;217.50;35.57;;;8.80;99.90;;;;;;5028060;28;38913;-79
2023/10/26 06:29:51;;;;;;;195.20;36.97;;;8.80;99.90;;;;;;5028328;28;37430;-80
2023/10/26 06:32:18;;;;;;;398.20;52.60;;;8.90;99.90;;;;;;5027824;28;38888;-81
2023/10/26 06:34:47;;;;;;;104.17;30.37;;;8.90;99.90;;;;;;5031207;28;36463;-79
2023/10/26 06:37:13;;;;;;;43.17;28.60;;;8.80;99.90;;;;;;5032545;28;39389;-77
2023/10/26 06:39:39;;;;;;;134.43;34.67;;;8.80;99.90;;;;;;5037074;28;41095;-80
2023/10/26 06:42:05;;;;;;;104.97;32.10;;;8.90;99.90;;;;;;5029717;28;36972;-80
2023/10/26 06:44:31;;;;;;;71.07;29.20;;;8.90;99.90;;;;;;5030597;28;38621;-78
2023/10/26 06:46:57;;;;;;;270.93;43.57;;;8.90;99.90;;;;;;5032163;28;40013;-80
2023/10/26 06:49:23;;;;;;;274.67;42.10;;;9.00;99.90;;;;;;5032376;28;38724;-78
2023/10/26 06:51:50;;;;;;;148.80;35.33;;;9.00;99.90;;;;;;5029500;28;37060;-77
2023/10/26 06:54:16;;;;;;;108.90;32.93;;;9.00;99.90;;;;;;5034520;28;37062;-78
2023/10/26 06:56:42;;;;;;;46.97;28.77;;;9.00;99.90;;;;;;5032692;28;38560;-79
2023/10/26 06:59:09;;;;;;;42.03;30.80;;;9.10;99.90;;;;;;5035451;28;39429;-79
2023/10/26 07:01:36;;;;;;;99.90;33.60;;;9.00;99.90;;;;;;5029765;28;39119;-78
2023/10/26 07:04:02;;;;;;;153.10;38.57;;;9.10;99.90;;;;;;5032145;28;37364;-77
2023/10/26 07:06:29;;;;;;;193.27;43.70;;;9.20;99.90;;;;;;5035937;28;38710;-77
2023/10/26 07:08:55;;;;;;;366.80;58.87;;;9.30;99.90;;;;;;5034008;28;39963;-78
2023/10/26 07:11:21;;;;;;;70.50;34.60;;;9.30;99.90;;;;;;5030695;28;37664;-79
2023/10/26 07:13:47;;;;;;;53.73;30.77;;;9.30;99.90;;;;;;5029573;28;36075;-78
2023/10/26 07:16:13;;;;;;;46.47;32.77;;;9.30;99.90;;;;;;5030604;28;38443;-78
2023/10/26 07:18:39;;;;;;;54.07;33.97;;;9.20;99.90;;;;;;5020341;28;38038;-78
2023/10/26 07:21:06;;;;;;;41.67;26.50;;;9.20;99.90;;;;;;5023598;28;38886;-80
2023/10/26 07:23:33;;;;;;;62.27;33.70;;;9.30;99.90;;;;;;5032502;28;36159;-78
2023/10/26 07:25:59;;;;;;;60.80;33.60;;;9.40;99.90;;;;;;5031881;28;38639;-80
2023/10/26 07:28:25;;;;;;;52.00;31.20;;;9.60;99.90;;;;;;5031284;28;39054;-77
2023/10/26 07:30:51;;;;;;;49.90;33.00;;;9.50;99.90;;;;;;5025037;28;37304;-79
2023/10/26 07:33:20;;;;;;;43.50;31.87;;;9.50;99.90;;;;;;5032259;28;36604;-78
2023/10/26 07:35:52;;;;;;;210.87;41.27;;;9.50;99.90;;;;;;5032675;28;38525;-78
2023/10/26 07:38:18;;;;;;;41.80;31.33;;;9.60;99.90;;;;;;5033652;28;38456;-78
2023/10/26 07:40:53;;;;;;;55.33;33.30;;;9.70;99.90;;;;;;5030928;28;37541;-78
2023/10/26 07:43:20;;;;;;;228.40;48.17;;;9.70;99.90;;;;;;5031706;28;36736;-78
2023/10/26 07:45:47;;;;;;;121.17;39.60;;;9.70;99.90;;;;;;5029977;28;37506;-77
2023/10/26 07:48:15;;;;;;;193.47;46.20;;;9.80;99.90;;;;;;5030638;28;37721;-79
2023/10/26 07:50:41;;;;;;;55.77;33.83;;;9.90;99.90;;;;;;5027910;28;37371;-79
2023/10/26 07:53:08;;;;;;;69.83;37.70;;;9.90;99.90;;;;;;5032098;28;39263;-81
2023/10/26 07:55:34;;;;;;;104.80;37.73;;;9.90;99.90;;;;;;5031328;28;39360;-80
2023/10/26 07:58:03;;;;;;;53.77;35.63;;;9.90;99.90;;;;;;5030023;28;37662;-82
2023/10/26 08:00:29;;;;;;;59.37;34.57;;;9.90;99.90;;;;;;5029288;28;46460;-80
2023/10/26 08:02:55;;;;;;;49.87;33.30;;;9.90;99.90;;;;;;5028661;28;37191;-80
2023/10/26 08:05:22;;;;;;;55.07;34.07;;;9.90;99.90;;;;;;5028540;28;20117;-81
2023/10/26 08:07:48;;;;;;;104.47;41.63;;;10.00;99.90;;;;;;5034144;28;40020;-78
2023/10/26 08:10:15;;;;;;;66.97;37.70;;;10.10;99.90;;;;;;5030236;28;37865;-77
2023/10/26 08:12:41;;;;;;;74.30;36.50;;;10.20;99.90;;;;;;5031021;28;37311;-78
2023/10/26 08:15:08;;;;;;;66.37;36.43;;;10.10;99.90;;;;;;5031695;28;37546;-80
2023/10/26 08:17:35;;;;;;;76.53;38.37;;;10.20;99.90;;;;;;5030273;28;38858;-78
2023/10/26 08:20:07;;;;;;;61.20;35.23;;;10.20;99.90;;;;;;5032824;28;37394;-80
2023/10/26 08:22:36;;;;;;;71.57;37.30;;;10.30;99.90;;;;;;5034587;28;48172;-78
2023/10/26 08:25:03;;;;;;;65.77;36.20;;;10.30;99.90;;;;;;5033696;28;38603;-78
2023/10/26 08:27:29;;;;;;;60.30;35.50;;;10.20;99.90;;;;;;5032081;28;47207;-79
2023/10/26 08:29:56;;;;;;;128.47;42.13;;;10.40;99.90;;;;;;5032868;28;37405;-79
2023/10/26 08:32:22;;;;;;;100.57;40.97;;;10.50;99.90;;;;;;5033156;28;37326;-80
2023/10/26 08:34:48;;;;;;;64.20;35.37;;;10.50;99.90;;;;;;5031130;28;37753;-80
2023/10/26 08:37:17;;;;;;;68.60;36.47;;;10.50;99.90;;;;;;5028113;28;39063;-77
2023/10/26 08:39:43;;;;;;;80.30;37.23;;;10.60;99.90;;;;;;5033059;28;37902;-78
2023/10/26 08:42:09;;;;;;;148.37;47.73;;;10.60;99.90;;;;;;5034921;28;37819;-78
2023/10/26 08:44:37;;;;;;;118.70;44.30;;;10.70;99.90;;;;;;5033680;28;37486;-77
2023/10/26 08:47:04;;;;;;;72.47;40.10;;;10.70;99.90;;;;;;5033626;28;37656;-78
2023/10/26 08:49:31;;;;;;;90.90;40.27;;;10.60;99.90;;;;;;5031870;28;37348;-79
2023/10/26 08:51:59;;;;;;;102.83;41.97;;;10.60;99.90;;;;;;5031270;28;37987;-78
2023/10/26 08:54:28;;;;;;;126.73;47.17;;;10.70;99.90;;;;;;5037549;28;38509;-79
2023/10/26 08:56:55;;;;;;;77.07;38.47;;;10.80;99.90;;;;;;5028851;28;38623;-78
2023/10/26 08:59:24;;;;;;;117.57;42.07;;;10.80;99.90;;;;;;5026715;28;40767;-76
2023/10/26 09:01:51;;;;;;;94.17;39.63;;;10.90;99.90;;;;;;5031574;28;37708;-78
2023/10/26 09:04:17;;;;;;;65.10;36.20;;;11.00;99.90;;;;;;5033684;28;37906;-78
2023/10/26 09:06:49;;;;;;;100.30;43.83;;;11.00;99.90;;;;;;5035064;28;38686;-78
2023/10/26 09:09:16;;;;;;;90.03;42.42;;;11.00;99.90;;;;;;5029341;28;38473;-78
2023/10/26 09:11:46;;;;;;;64.37;36.33;;;11.10;99.90;;;;;;5034567;28;36143;-78
2023/10/26 09:14:16;;;;;;;90.70;41.17;;;11.20;99.90;;;;;;5045004;28;37395;-78
2023/10/26 09:16:45;;;;;;;67.13;34.97;;;11.20;99.90;;;;;;5033996;28;39577;-78
2023/10/26 09:19:12;;;;;;;53.85;31.98;;;11.10;99.90;;;;;;5027168;28;37331;-77
2023/10/26 09:21:53;;;;;;;61.22;33.92;;;11.00;99.90;;;;;;5027914;28;36282;-78
2023/10/26 09:24:26;;;;;;;51.53;31.42;;;11.00;99.90;;;;;;5028245;28;38761;-77
2023/10/26 09:26:59;;;;;;;50.88;30.00;;;11.00;99.90;;;;;;5031149;28;37878;-78
2023/10/26 09:29:41;;;;;;;48.28;29.05;;;11.20;99.90;;;;;;5031232;28;39178;-78
2023/10/26 09:32:08;;;;;;;53.92;29.58;;;11.10;99.90;;;;;;5030549;28;37221;-78
2023/10/26 09:34:42;;;;;;;52.08;31.60;;;11.20;99.90;;;;;;5029876;28;37770;-77
2023/10/26 09:37:09;;;;;;;52.22;28.77;;;11.40;99.90;;;;;;5029693;28;38173;-78
2023/10/26 09:39:37;;;;;;;44.38;28.83;;;11.50;99.90;;;;;;5031867;28;38279;-78
2023/10/26 09:42:09;;;;;;;43.25;26.85;;;11.60;99.90;;;;;;5038567;28;37307;-78
2023/10/26 09:44:36;;;;;;;52.78;28.98;;;11.70;99.90;;;;;;5042690;28;37718;-77
2023/10/26 09:47:03;;;;;;;44.15;25.85;;;12.00;99.90;;;;;;5038669;28;37625;-78
2023/10/26 09:49:30;;;;;;;47.00;26.65;;;12.10;99.90;;;;;;5035229;28;37484;-78
2023/10/26 09:51:58;;;;;;;42.85;26.05;;;12.00;99.90;;;;;;5034911;28;37303;-78
2023/10/26 09:54:31;;;;;;;41.22;25.25;;;12.20;99.90;;;;;;5036147;28;38581;-78
2023/10/26 09:57:03;;;;;;;35.38;24.65;;;12.10;99.90;;;;;;5032804;28;38893;-78
2023/10/26 09:59:31;;;;;;;32.28;22.85;;;12.10;99.90;;;;;;5033948;28;46720;-79
2023/10/26 10:01:57;;;;;;;28.67;21.02;;;12.00;99.90;;;;;;5032983;28;36749;-79
2023/10/26 10:04:37;;;;;;;31.80;22.65;;;11.90;99.90;;;;;;5032065;28;38677;-78
2023/10/26 10:07:04;;;;;;;28.15;21.33;;;12.00;99.90;;;;;;5034181;28;39336;-78
2023/10/26 10:09:31;;;;;;;29.98;22.98;;;12.00;99.90;;;;;;5024317;28;37708;-78
2023/10/26 10:12:08;;;;;;;28.20;21.70;;;12.00;99.90;;;;;;5031521;28;36447;-78
2023/10/26 10:14:47;;;;;;;30.00;22.60;;;11.90;99.90;;;;;;5031923;28;46998;-79
2023/10/26 10:17:14;;;;;;;30.30;22.58;;;12.10;99.90;;;;;;5035175;28;38025;-78
2023/10/26 10:19:42;;;;;;;27.25;20.88;;;12.10;99.90;;;;;;5033874;28;38359;-78
2023/10/26 10:22:39;;;;;;;25.67;20.70;;;12.10;99.90;;;;;;5034053;28;37268;-78
2023/10/26 10:25:10;;;;;;;26.13;19.60;;;12.10;99.90;;;;;;5029172;28;37029;-77
2023/10/26 10:27:40;;;;;;;29.13;21.77;;;12.20;99.90;;;;;;5031898;28;47146;-78
2023/10/26 10:30:11;;;;;;;26.17;20.73;;;12.20;99.90;;;;;;5030658;28;37899;-77
2023/10/26 10:32:48;;;;;;;25.98;21.60;;;12.20;99.90;;;;;;5039680;28;36175;-79
2023/10/26 10:35:46;;;;;;;29.77;20.60;;;12.00;99.90;;;;;;5033007;28;38700;-77
2023/10/26 10:38:18;;;;;;;24.60;20.88;;;12.10;99.90;;;;;;5032286;28;38546;-77
2023/10/26 10:40:53;;;;;;;26.60;20.38;;;12.20;99.90;;;;;;5033913;28;38565;-78
2023/10/26 10:43:33;;;;;;;24.92;20.38;;;12.20;99.90;;;;;;5028895;28;38152;-78
2023/10/26 10:46:12;;;;;;;26.70;21.85;;;12.00;99.90;;;;;;5032004;28;38244;-78
2023/10/26 10:49:00;;;;;;;28.13;20.52;;;11.90;99.90;;;;;;5034681;28;48486;-78
2023/10/26 10:51:36;;;;;;;26.52;21.13;;;11.80;99.90;;;;;;5037859;28;37346;-79
2023/10/26 10:54:05;;;;;;;26.30;21.27;;;11.60;99.90;;;;;;5033166;28;38377;-78
2023/10/26 10:56:42;;;;;;;30.17;22.80;;;11.60;99.90;;;;;;5032123;28;39976;-78
2023/10/26 10:59:22;;;;;;;26.70;20.90;;;11.70;99.90;;;;;;5028718;28;39271;-77
2023/10/26 11:02:08;;;;;;;27.15;20.85;;;11.90;99.90;;;;;;5030351;28;38819;-77
2023/10/26 11:04:34;;;;;;;24.50;20.23;;;11.80;99.90;;;;;;5028781;28;48192;-79
2023/10/26 11:07:01;;;;;;;25.52;19.00;;;11.80;99.90;;;;;;5029145;28;38250;-79
2023/10/26 11:09:31;;;;;;;22.58;18.70;;;11.80;99.90;;;;;;5027375;28;37888;-78
2023/10/26 11:12:08;;;;;;;22.25;18.33;;;11.70;99.90;;;;;;5032399;28;39056;-78
2023/10/26 11:14:34;;;;;;;23.05;18.23;;;11.70;99.90;;;;;;5032794;28;48459;-78
2023/10/26 11:17:01;;;;;;;21.38;17.75;;;11.60;99.90;;;;;;5029962;28;38646;-78
2023/10/26 11:19:27;;;;;;;23.58;18.45;;;11.60;99.90;;;;;;5028856;28;46718;-77
2023/10/26 11:21:55;;;;;;;21.52;16.90;;;11.70;99.90;;;;;;5029014;28;37350;-80
2023/10/26 11:24:31;;;;;;;23.75;17.27;;;11.70;99.90;;;;;;5033970;28;36855;-78
2023/10/26 11:27:07;;;;;;;21.23;17.02;;;11.60;99.90;;;;;;5035042;28;39102;-78
2023/10/26 11:29:34;;;;;;;20.55;16.58;;;11.70;99.90;;;;;;5039989;28;47119;-78
2023/10/26 11:32:00;;;;;;;19.73;15.63;;;11.70;99.90;;;;;;5033199;28;38590;-78
2023/10/26 11:34:27;;;;;;;19.23;15.90;;;11.60;99.90;;;;;;5032324;28;38419;-78
2023/10/26 11:36:54;;;;;;;18.08;14.80;;;11.60;99.90;;;;;;5031861;28;37660;-78
2023/10/26 11:39:20;;;;;;;21.38;16.98;;;11.50;99.90;;;;;;5034913;28;40053;-78
2023/10/26 11:41:54;;;;;;;20.80;15.57;;;11.70;99.90;;;;;;5037317;28;38317;-79
2023/10/26 11:44:25;;;;;;;18.92;15.25;;;11.80;99.90;;;;;;5034281;28;36560;-79
2023/10/26 11:46:58;;;;;;;16.60;13.48;;;11.90;99.90;;;;;;5035511;28;38905;-78
2023/10/26 11:49:38;;;;;;;18.95;13.93;;;11.70;99.90;;;;;;5033043;28;39384;-79
2023/10/26 11:52:05;;;;;;;20.10;14.38;;;11.80;99.90;;;;;;5031799;28;38818;-78
2023/10/26 11:54:31;;;;;;;15.93;13.30;;;11.90;99.90;;;;;;5033780;28;38494;-79
2023/10/26 11:56:57;;;;;;;16.10;13.40;;;11.80;99.90;;;;;;5032658;28;38549;-79
2023/10/26 11:59:24;;;;;;;15.55;12.75;;;11.90;99.90;;;;;;5033606;28;38256;-79
2023/10/26 12:01:50;;;;;;;16.90;13.88;;;12.00;99.90;;;;;;5037385;28;38535;-79
2023/10/26 12:04:16;;;;;;;17.38;14.02;;;12.00;99.90;;;;;;5033806;28;37996;-78
2023/10/26 12:06:42;;;;;;;16.88;12.85;;;12.00;99.90;;;;;;5031904;28;41807;-76
2023/10/26 12:09:08;;;;;;;14.07;12.02;;;12.10;99.90;;;;;;5043975;28;37480;-77
2023/10/26 12:11:34;;;;;;;13.98;11.50;;;12.20;99.90;;;;;;5032892;28;38147;-78
2023/10/26 12:14:00;;;;;;;15.07;11.52;;;12.20;99.90;;;;;;5037540;28;38423;-77
2023/10/26 12:16:26;;;;;;;13.00;11.52;;;12.20;99.90;;;;;;5033519;28;38362;-78
2023/10/26 12:18:52;;;;;;;13.77;11.43;;;12.10;99.90;;;;;;5031759;28;38307;-78
2023/10/26 12:21:18;;;;;;;13.38;11.57;;;11.90;99.90;;;;;;5034044;28;38728;-77
2023/10/26 12:23:44;;;;;;;14.23;12.70;;;11.90;99.90;;;;;;5034349;28;38539;-77
2023/10/26 12:26:11;;;;;;;14.52;11.88;;;12.00;99.90;;;;;;5034733;28;38065;-76
2023/10/26 12:28:37;;;;;;;14.70;12.35;;;12.10;99.90;;;;;;5033489;28;37975;-78
2023/10/26 12:31:03;;;;;;;14.95;11.80;;;12.10;99.90;;;;;;5033190;28;37412;-79
2023/10/26 12:33:29;;;;;;;15.40;13.13;;;12.20;99.90;;;;;;5032950;28;37122;-79
2023/10/26 12:35:55;;;;;;;20.02;15.40;;;12.30;99.90;;;;;;5038750;28;39887;-77